Time;durP1;ratioP1;P1;durP2;ratioP2;P2;SDS_P1;SDS_P2;PMS_P1;PMS_P2;Temp;Humidity;BMP_temperature;BMP_pressure;BME280_temperature;BME280_humidity;BME280_pressure;Samples;Min_cycle;Max_cycle;Signal;HPM_P1;HPM_P2
2022/01/30 00:00:47;;;;;;;25.50;5.10;;;6.10;99.90;;;;;;5100201;28;20077;-67
2022/01/30 00:03:18;;;;;;;19.38;2.65;;;6.00;99.90;;;;;;5082136;28;20035;-67
2022/01/30 00:05:46;;;;;;;18.17;2.67;;;6.00;99.90;;;;;;5082812;28;20032;-67
2022/01/30 00:08:14;;;;;;;7.40;2.28;;;5.90;99.90;;;;;;5100296;28;20031;-67
2022/01/30 00:10:42;;;;;;;13.60;2.25;;;5.80;99.90;;;;;;5082473;28;20032;-67
2022/01/30 00:13:12;;;;;;;11.63;1.88;;;5.80;99.90;;;;;;5083091;28;20020;-67
2022/01/30 00:15:45;;;;;;;17.65;2.42;;;5.70;99.90;;;;;;5100624;28;20099;-67
2022/01/30 00:21:08;;;;;;;12.43;2.05;;;5.50;99.90;;;;;;5059126;28;20036;-67
2022/01/30 00:23:43;;;;;;;13.13;2.17;;;5.50;99.90;;;;;;5100784;28;20065;-67
2022/01/30 00:26:14;;;;;;;16.13;2.53;;;5.40;99.90;;;;;;5100850;28;20111;-67
2022/01/30 00:28:41;;;;;;;12.90;1.60;;;5.40;99.90;;;;;;5078964;28;20131;-67
2022/01/30 00:31:10;;;;;;;14.27;2.20;;;5.30;99.90;;;;;;5080070;28;20031;-67
2022/01/30 00:33:37;;;;;;;10.07;3.08;;;5.30;99.90;;;;;;5079273;28;20029;-67
2022/01/30 00:36:04;;;;;;;17.00;2.33;;;5.30;99.90;;;;;;5078919;28;20397;-67
2022/01/30 00:38:33;;;;;;;12.73;2.42;;;5.30;99.90;;;;;;5079306;28;20021;-67
2022/01/30 00:41:00;;;;;;;9.93;2.70;;;5.30;99.90;;;;;;5079378;28;20051;-67
2022/01/30 00:43:28;;;;;;;11.52;2.20;;;5.30;99.90;;;;;;5079374;28;20031;-67
2022/01/30 00:45:55;;;;;;;11.90;1.40;;;5.30;99.90;;;;;;5079199;28;20074;-67
2022/01/30 00:48:23;;;;;;;11.80;1.83;;;5.30;99.90;;;;;;5079053;28;20346;-67
2022/01/30 00:50:51;;;;;;;15.50;2.67;;;5.20;99.90;;;;;;5079146;28;20020;-67
2022/01/30 00:53:19;;;;;;;10.95;3.17;;;5.30;99.90;;;;;;5079438;28;20103;-67
2022/01/30 00:55:47;;;;;;;17.75;2.53;;;5.30;99.90;;;;;;5062079;28;20028;-67
2022/01/30 00:58:15;;;;;;;15.98;2.03;;;5.30;99.90;;;;;;5080326;28;20021;-67
2022/01/30 01:00:43;;;;;;;11.80;2.63;;;5.30;99.90;;;;;;5079970;28;20028;-67
2022/01/30 01:03:10;;;;;;;11.02;2.13;;;5.20;99.90;;;;;;5079696;28;20031;-67
2022/01/30 01:05:38;;;;;;;21.80;3.70;;;5.20;99.90;;;;;;5077979;28;20103;-67
2022/01/30 01:08:12;;;;;;;17.95;3.47;;;5.20;99.90;;;;;;5079552;28;20028;-67
2022/01/30 01:24:04;;;;;;;23.10;2.42;;;5.40;99.90;;;;;;5078743;28;20024;-67
2022/01/30 01:26:32;;;;;;;21.50;4.05;;;5.50;99.90;;;;;;5078565;28;20031;-67
2022/01/30 01:29:00;;;;;;;10.15;1.92;;;5.50;99.90;;;;;;5087212;28;20085;-67
2022/01/30 01:31:27;;;;;;;17.42;3.33;;;5.50;99.90;;;;;;5098766;28;20031;-67
2022/01/30 01:36:25;;;;;;;16.95;3.28;;;5.50;99.90;;;;;;5099231;28;20051;-67
2022/01/30 01:38:53;;;;;;;12.32;2.15;;;5.50;99.90;;;;;;5081307;28;20027;-67
2022/01/30 01:41:22;;;;;;;24.60;3.55;;;5.50;99.90;;;;;;5081708;28;20103;-67
2022/01/30 01:43:50;;;;;;;15.73;2.95;;;5.50;99.90;;;;;;5081482;28;20110;-67
2022/01/30 01:46:23;;;;;;;17.45;1.88;;;5.60;99.90;;;;;;5081107;28;20115;-67
2022/01/30 01:48:53;;;;;;;14.65;2.63;;;5.50;99.90;;;;;;5098876;28;20039;-67
2022/01/30 01:51:26;;;;;;;16.88;3.28;;;5.40;99.90;;;;;;5099056;28;20336;-67
2022/01/30 01:53:58;;;;;;;9.77;1.98;;;5.20;99.90;;;;;;5098897;28;20035;-67
2022/01/30 01:56:27;;;;;;;22.00;2.95;;;5.10;99.90;;;;;;5098386;28;20024;-67
2022/01/30 01:58:55;;;;;;;19.85;2.20;;;4.90;99.90;;;;;;5097863;28;20039;-67
2022/01/30 02:01:24;;;;;;;15.63;2.83;;;4.90;99.90;;;;;;5080079;28;20030;-68
2022/01/30 02:03:54;;;;;;;12.82;2.08;;;4.80;99.90;;;;;;5097859;28;20028;-67
2022/01/30 02:06:24;;;;;;;11.63;2.38;;;4.80;99.90;;;;;;5097760;28;20438;-67
2022/01/30 02:08:56;;;;;;;13.30;1.33;;;4.80;99.90;;;;;;5097701;28;20024;-67
2022/01/30 02:11:38;;;;;;;15.75;1.90;;;4.80;99.90;;;;;;5097586;28;20028;-67
2022/01/30 02:27:37;;;;;;;11.35;1.88;;;5.10;99.90;;;;;;5098444;28;20389;-67
2022/01/30 02:30:16;;;;;;;7.80;1.80;;;5.00;99.90;;;;;;5076476;28;20140;-67
2022/01/30 02:32:45;;;;;;;16.30;3.75;;;5.10;99.90;;;;;;5078154;28;20025;-67
2022/01/30 02:35:13;;;;;;;7.75;2.10;;;5.10;99.90;;;;;;5077921;28;20040;-67
2022/01/30 02:37:40;;;;;;;22.67;2.70;;;5.10;99.90;;;;;;5078723;28;20387;-67
2022/01/30 02:40:11;;;;;;;16.38;2.40;;;5.10;99.90;;;;;;5076711;28;20021;-67
2022/01/30 02:42:46;;;;;;;10.25;1.45;;;5.10;99.90;;;;;;5075757;28;20321;-67
2022/01/30 02:45:15;;;;;;;14.48;3.20;;;5.20;99.90;;;;;;5076015;28;20046;-67
2022/01/30 02:47:57;;;;;;;13.77;2.70;;;5.20;99.90;;;;;;5077190;28;20421;-67
2022/01/30 02:50:51;;;;;;;12.48;1.88;;;5.30;99.90;;;;;;5077214;28;20032;-67
2022/01/30 02:53:24;;;;;;;15.85;2.83;;;5.20;99.90;;;;;;5076560;28;20024;-67
2022/01/30 02:55:53;;;;;;;11.00;1.63;;;5.10;99.90;;;;;;5075616;28;20332;-67
2022/01/30 02:58:20;;;;;;;19.35;2.20;;;4.90;99.90;;;;;;5076979;28;20353;-67
2022/01/30 03:00:47;;;;;;;12.73;2.05;;;4.90;99.90;;;;;;5077236;28;20025;-67
2022/01/30 03:03:15;;;;;;;11.85;2.92;;;4.90;99.90;;;;;;5078069;28;20029;-67
2022/01/30 03:05:42;;;;;;;11.25;2.50;;;4.90;99.90;;;;;;5077708;28;20024;-67
2022/01/30 03:08:10;;;;;;;21.45;2.22;;;4.90;99.90;;;;;;5077506;28;20020;-67
2022/01/30 03:10:38;;;;;;;10.93;1.95;;;4.90;99.90;;;;;;5077364;28;20320;-67
2022/01/30 03:13:06;;;;;;;15.80;2.88;;;4.90;99.90;;;;;;5077983;28;20020;-67
2022/01/30 03:15:35;;;;;;;8.50;1.85;;;4.90;99.90;;;;;;5076371;28;20029;-67
2022/01/30 03:18:02;;;;;;;17.65;2.45;;;4.80;99.90;;;;;;5076365;28;20016;-67
2022/01/30 03:20:30;;;;;;;25.08;4.07;;;4.70;99.90;;;;;;5076978;28;20048;-67
2022/01/30 03:22:59;;;;;;;19.05;3.75;;;4.50;99.90;;;;;;5058910;28;20058;-67
2022/01/30 03:25:27;;;;;;;16.42;2.00;;;4.40;99.90;;;;;;5076282;28;20040;-67
2022/01/30 03:27:54;;;;;;;20.98;3.50;;;4.30;99.90;;;;;;5076777;28;20021;-67
2022/01/30 03:30:27;;;;;;;18.35;2.20;;;4.30;99.90;;;;;;5090309;28;20052;-67
2022/01/30 03:32:55;;;;;;;12.63;1.98;;;4.30;99.90;;;;;;5101067;28;20323;-67
2022/01/30 03:35:23;;;;;;;12.00;1.55;;;4.20;99.90;;;;;;5101282;28;20023;-67
2022/01/30 03:37:51;;;;;;;17.25;2.40;;;4.20;99.90;;;;;;5100660;28;20024;-67
2022/01/30 03:40:18;;;;;;;12.13;2.65;;;4.30;99.90;;;;;;5100521;28;20020;-67
2022/01/30 03:42:45;;;;;;;23.27;2.90;;;4.30;99.90;;;;;;5101188;28;20094;-67
2022/01/30 03:45:13;;;;;;;20.05;3.50;;;4.40;99.90;;;;;;5083523;28;20023;-67
2022/01/30 03:47:40;;;;;;;6.32;1.13;;;4.40;99.90;;;;;;5101398;28;20031;-67
2022/01/30 03:50:08;;;;;;;11.82;2.15;;;4.50;99.90;;;;;;5101550;28;20020;-67
2022/01/30 03:52:35;;;;;;;9.73;2.17;;;4.50;99.90;;;;;;5083408;28;20026;-67
2022/01/30 03:55:03;;;;;;;18.15;1.73;;;4.50;99.90;;;;;;5083267;28;20088;-67
2022/01/30 03:57:30;;;;;;;14.35;2.15;;;4.50;99.90;;;;;;5083382;28;20020;-67
2022/01/30 03:59:57;;;;;;;8.80;1.13;;;4.40;99.90;;;;;;5101246;28;20069;-67
2022/01/30 04:02:24;;;;;;;16.00;2.78;;;4.30;99.90;;;;;;5101366;28;20055;-67
2022/01/30 04:04:52;;;;;;;18.60;1.83;;;4.30;99.90;;;;;;5100396;28;20020;-67
2022/01/30 04:07:20;;;;;;;10.38;2.13;;;4.30;99.90;;;;;;5100214;28;20028;-67
2022/01/30 04:09:47;;;;;;;18.77;2.92;;;4.30;99.90;;;;;;5100077;28;20016;-67
2022/01/30 04:12:15;;;;;;;9.38;3.00;;;4.30;99.90;;;;;;5098907;28;20032;-67
2022/01/30 04:14:43;;;;;;;13.85;2.42;;;4.30;99.90;;;;;;5082027;28;20020;-67
2022/01/30 04:17:10;;;;;;;14.93;2.67;;;4.30;99.90;;;;;;5100041;28;20020;-67
2022/01/30 04:19:38;;;;;;;19.42;1.95;;;4.30;99.90;;;;;;5100110;28;20020;-67
2022/01/30 04:22:05;;;;;;;17.17;2.45;;;4.40;99.90;;;;;;5100166;28;20024;-67
2022/01/30 04:24:33;;;;;;;17.92;2.55;;;4.40;99.90;;;;;;5081854;28;20036;-67
2022/01/30 04:27:00;;;;;;;6.40;2.25;;;4.50;99.90;;;;;;5066391;28;20028;-67
2022/01/30 04:29:27;;;;;;;9.65;2.20;;;4.50;99.90;;;;;;5100726;28;20344;-67
2022/01/30 04:31:55;;;;;;;19.35;3.08;;;4.60;99.90;;;;;;5081490;28;20430;-67
2022/01/30 04:34:23;;;;;;;6.88;1.15;;;4.70;99.90;;;;;;5082729;28;20035;-67
2022/01/30 04:37:15;;;;;;;12.25;2.33;;;4.70;99.90;;;;;;5100620;28;20024;-67
2022/01/30 04:56:51;;;;;;;20.77;2.78;;;4.40;99.90;;;;;;5099279;28;20336;-67
2022/01/30 05:01:52;;;;;;;13.68;2.60;;;4.30;99.90;;;;;;5099148;28;20081;-67
2022/01/30 05:04:40;;;;;;;15.05;3.10;;;4.20;99.90;;;;;;5098946;28;20026;-67
2022/01/30 05:09:36;;;;;;;12.77;3.30;;;4.30;99.90;;;;;;5082222;28;20493;-67
2022/01/30 05:12:04;;;;;;;11.93;2.45;;;4.30;99.90;;;;;;5100447;28;20088;-67
2022/01/30 05:14:35;;;;;;;19.35;2.55;;;4.30;99.90;;;;;;5081861;28;20026;-67
2022/01/30 05:17:05;;;;;;;15.75;3.08;;;4.40;99.90;;;;;;5100476;28;20066;-67
2022/01/30 05:19:33;;;;;;;13.75;2.20;;;4.40;99.90;;;;;;5081710;28;20377;-67
2022/01/30 05:22:00;;;;;;;16.77;3.33;;;4.40;99.90;;;;;;5081813;28;20056;-67
2022/01/30 05:24:29;;;;;;;17.60;2.30;;;4.40;99.90;;;;;;5099601;28;20016;-67
2022/01/30 05:26:56;;;;;;;19.75;3.35;;;4.30;99.90;;;;;;5081218;28;20098;-67
2022/01/30 05:29:24;;;;;;;19.50;2.95;;;4.30;99.90;;;;;;5098396;28;20125;-68
2022/01/30 05:31:52;;;;;;;9.80;2.22;;;4.30;99.90;;;;;;5098650;28;20153;-67
2022/01/30 05:34:19;;;;;;;20.67;3.80;;;4.40;99.90;;;;;;5098506;28;20024;-67
2022/01/30 05:36:47;;;;;;;13.68;3.20;;;4.40;99.90;;;;;;5080492;28;20023;-67
2022/01/30 05:39:15;;;;;;;19.25;4.10;;;4.40;99.90;;;;;;5097237;28;20427;-67
2022/01/30 05:41:42;;;;;;;13.98;2.20;;;4.50;99.90;;;;;;5098528;28;20086;-67
2022/01/30 05:44:13;;;;;;;12.85;2.42;;;4.50;99.90;;;;;;5080311;28;20032;-67
2022/01/30 05:46:48;;;;;;;13.27;2.63;;;4.40;99.90;;;;;;5098152;28;20028;-67
2022/01/30 05:49:17;;;;;;;27.52;3.97;;;4.40;99.90;;;;;;5098259;28;20028;-67
2022/01/30 05:51:45;;;;;;;23.92;4.32;;;4.30;99.90;;;;;;5080991;28;20126;-67
2022/01/30 05:54:12;;;;;;;25.85;3.90;;;4.30;99.90;;;;;;5099032;28;20024;-67
2022/01/30 05:56:40;;;;;;;20.15;3.17;;;4.20;99.90;;;;;;5099507;28;20050;-67
2022/01/30 05:59:07;;;;;;;8.90;2.40;;;4.20;99.90;;;;;;5098897;28;20024;-67
2022/01/30 06:01:35;;;;;;;14.35;2.40;;;4.20;99.90;;;;;;5099187;28;20035;-67
2022/01/30 06:04:02;;;;;;;13.85;2.47;;;4.20;99.90;;;;;;5081538;28;20027;-67
2022/01/30 06:06:30;;;;;;;18.60;2.92;;;4.20;99.90;;;;;;5098823;28;20016;-67
2022/01/30 06:09:00;;;;;;;19.48;2.45;;;4.20;99.90;;;;;;5099289;28;20024;-67
2022/01/30 06:11:27;;;;;;;9.73;2.05;;;4.30;99.90;;;;;;5097858;28;20052;-67
2022/01/30 06:13:55;;;;;;;14.65;2.70;;;4.30;99.90;;;;;;5097634;28;20059;-67
2022/01/30 06:16:22;;;;;;;18.13;2.80;;;4.30;99.90;;;;;;5079707;28;20020;-67
2022/01/30 06:18:49;;;;;;;14.20;3.17;;;4.40;99.90;;;;;;5097544;28;20095;-67
2022/01/30 06:21:20;;;;;;;16.25;3.70;;;4.40;99.90;;;;;;5097717;28;20354;-67
2022/01/30 06:23:49;;;;;;;21.92;3.05;;;4.40;99.90;;;;;;5097445;28;20084;-67
2022/01/30 06:26:17;;;;;;;16.20;4.28;;;4.40;99.90;;;;;;5097285;28;20028;-67
2022/01/30 06:28:44;;;;;;;20.42;2.75;;;4.40;99.90;;;;;;5097306;28;20027;-67
2022/01/30 06:31:12;;;;;;;12.73;3.40;;;4.40;99.90;;;;;;5097091;28;20044;-67
2022/01/30 06:33:39;;;;;;;17.88;2.13;;;4.30;99.90;;;;;;5080132;28;20027;-67
2022/01/30 06:36:06;;;;;;;19.83;3.30;;;4.30;99.90;;;;;;5080938;28;20023;-67
2022/01/30 06:38:33;;;;;;;9.85;2.40;;;4.20;99.90;;;;;;5098486;28;20416;-67
2022/01/30 06:41:01;;;;;;;24.73;3.90;;;4.20;99.90;;;;;;5098663;28;20077;-67
2022/01/30 06:43:28;;;;;;;17.38;3.80;;;4.20;99.90;;;;;;5098031;28;20060;-67
2022/01/30 06:45:56;;;;;;;21.35;1.92;;;4.10;99.90;;;;;;5098455;28;20101;-67
2022/01/30 06:48:23;;;;;;;24.80;4.88;;;4.00;99.90;;;;;;5080368;28;20028;-67
2022/01/30 06:50:51;;;;;;;12.85;3.00;;;4.00;99.90;;;;;;5097964;28;20023;-67
2022/01/30 06:53:18;;;;;;;21.35;2.95;;;4.00;99.90;;;;;;5097311;28;20024;-67
2022/01/30 06:55:46;;;;;;;19.40;3.85;;;4.00;99.90;;;;;;5097613;28;20422;-67
2022/01/30 06:58:15;;;;;;;13.55;2.13;;;3.90;99.90;;;;;;5096823;28;20073;-67
2022/01/30 07:00:42;;;;;;;18.85;3.55;;;3.90;99.90;;;;;;5079002;28;20081;-67
2022/01/30 07:03:09;;;;;;;20.02;3.00;;;3.90;99.90;;;;;;5079023;28;20021;-67
2022/01/30 07:05:36;;;;;;;26.63;3.00;;;3.90;99.90;;;;;;5079045;28;20030;-67
2022/01/30 07:08:04;;;;;;;29.00;4.35;;;3.90;99.90;;;;;;5097337;28;20074;-67
2022/01/30 07:10:31;;;;;;;16.25;4.10;;;3.90;99.90;;;;;;5062002;28;20039;-67
2022/01/30 07:12:58;;;;;;;20.35;2.85;;;3.90;99.90;;;;;;5078713;28;20497;-67
2022/01/30 07:15:26;;;;;;;16.52;2.28;;;3.90;99.90;;;;;;5079388;28;20115;-66
2022/01/30 07:17:54;;;;;;;19.98;3.70;;;3.90;99.90;;;;;;5079764;28;20024;-66
2022/01/30 07:20:21;;;;;;;11.52;2.40;;;3.90;99.90;;;;;;5097539;28;20480;-67
2022/01/30 07:22:49;;;;;;;20.45;2.33;;;3.90;99.90;;;;;;5097519;28;20028;-68
2022/01/30 07:25:17;;;;;;;21.55;4.38;;;3.90;99.90;;;;;;5097988;28;20103;-69
2022/01/30 07:27:46;;;;;;;21.63;6.07;;;3.90;99.90;;;;;;5098106;28;20043;-69
2022/01/30 07:30:14;;;;;;;20.25;6.80;;;3.90;99.90;;;;;;5097421;28;20046;-70
2022/01/30 07:32:41;;;;;;;17.40;3.83;;;3.90;99.90;;;;;;5097479;28;20073;-69
2022/01/30 07:35:09;;;;;;;15.52;3.75;;;3.90;99.90;;;;;;5079129;28;20103;-69
2022/01/30 07:37:36;;;;;;;15.35;3.05;;;3.90;99.90;;;;;;5096702;28;20013;-68
2022/01/30 07:40:05;;;;;;;15.55;2.60;;;3.90;99.90;;;;;;5061941;28;20082;-68
2022/01/30 07:42:34;;;;;;;21.60;3.63;;;3.80;99.90;;;;;;5096389;28;20056;-69
2022/01/30 07:45:04;;;;;;;14.90;2.83;;;3.80;99.90;;;;;;5096379;28;20111;-68
2022/01/30 07:47:32;;;;;;;20.52;2.90;;;3.80;99.90;;;;;;5096398;28;20020;-69
2022/01/30 07:49:59;;;;;;;17.83;3.70;;;3.90;99.90;;;;;;5096408;28;20059;-69
2022/01/30 07:52:27;;;;;;;17.85;4.18;;;3.90;99.90;;;;;;5096321;28;20024;-69
2022/01/30 07:54:54;;;;;;;22.30;5.25;;;4.00;99.90;;;;;;5096217;28;20024;-69
2022/01/30 07:57:22;;;;;;;22.08;3.65;;;4.00;99.90;;;;;;5096570;28;20016;-68
2022/01/30 07:59:50;;;;;;;23.20;3.40;;;4.00;99.90;;;;;;5097190;28;20484;-69
2022/01/30 08:02:17;;;;;;;22.83;2.67;;;4.00;99.90;;;;;;5097874;28;20396;-68
2022/01/30 08:04:45;;;;;;;21.92;3.78;;;4.00;99.90;;;;;;5097413;28;20051;-68
2022/01/30 08:07:12;;;;;;;19.67;3.17;;;4.00;99.90;;;;;;5097087;28;20054;-68
2022/01/30 08:09:40;;;;;;;22.92;3.80;;;4.00;99.90;;;;;;5097612;28;20027;-69
2022/01/30 08:12:08;;;;;;;23.08;3.25;;;4.00;99.90;;;;;;5097231;28;20024;-69
2022/01/30 08:14:36;;;;;;;15.18;3.05;;;4.00;99.90;;;;;;5100078;28;20016;-69
2022/01/30 08:17:04;;;;;;;19.55;6.80;;;4.10;99.90;;;;;;5100920;28;20012;-69
2022/01/30 08:19:31;;;;;;;22.50;4.55;;;4.10;99.90;;;;;;5082672;28;20020;-69
2022/01/30 08:22:01;;;;;;;35.65;5.60;;;4.20;99.90;;;;;;5082031;28;20035;-68
2022/01/30 08:24:29;;;;;;;34.10;8.77;;;4.30;99.90;;;;;;5099621;28;20047;-68
2022/01/30 08:26:56;;;;;;;70.80;16.25;;;4.30;99.90;;;;;;5099764;28;20021;-67
2022/01/30 08:29:25;;;;;;;18.52;3.63;;;4.40;99.90;;;;;;5081606;28;20020;-72
2022/01/30 08:31:52;;;;;;;19.27;3.60;;;4.40;99.90;;;;;;5081830;28;20035;-72
2022/01/30 08:34:19;;;;;;;18.17;3.72;;;4.40;99.90;;;;;;5081668;28;20024;-72
2022/01/30 08:36:47;;;;;;;23.15;3.78;;;4.40;99.90;;;;;;5100148;28;20046;-71
2022/01/30 08:39:14;;;;;;;23.77;6.45;;;4.50;99.90;;;;;;5100097;28;20032;-72
2022/01/30 08:41:42;;;;;;;10.20;2.70;;;4.50;99.90;;;;;;5100163;28;20032;-71
2022/01/30 08:44:09;;;;;;;36.55;4.43;;;4.50;99.90;;;;;;5082840;28;20385;-72
2022/01/30 08:46:37;;;;;;;24.80;5.45;;;4.50;99.90;;;;;;5100923;28;20300;-71
2022/01/30 08:49:04;;;;;;;17.80;4.03;;;4.50;99.90;;;;;;5100532;28;20088;-70
2022/01/30 08:51:33;;;;;;;22.55;4.82;;;4.50;99.90;;;;;;5100269;28;20327;-68
2022/01/30 08:54:00;;;;;;;26.13;3.78;;;4.40;99.90;;;;;;5100464;28;20095;-68
2022/01/30 08:56:28;;;;;;;19.17;4.28;;;4.40;99.90;;;;;;5082166;28;20020;-68
2022/01/30 08:58:56;;;;;;;25.05;5.90;;;4.40;99.90;;;;;;5100030;28;20020;-68
2022/01/30 09:01:23;;;;;;;38.42;4.88;;;4.40;99.90;;;;;;5099482;28;20020;-69
2022/01/30 09:03:50;;;;;;;18.20;3.25;;;4.40;99.90;;;;;;5081109;28;20432;-68
2022/01/30 09:06:18;;;;;;;13.50;2.38;;;4.30;99.90;;;;;;5099038;28;20024;-67
2022/01/30 09:08:45;;;;;;;16.35;2.85;;;4.30;99.90;;;;;;5080950;28;20028;-67
2022/01/30 09:11:13;;;;;;;32.80;4.80;;;4.40;99.90;;;;;;5098798;28;20024;-67
2022/01/30 09:13:40;;;;;;;23.00;5.05;;;4.40;99.90;;;;;;5081124;28;20023;-65
2022/01/30 09:16:08;;;;;;;17.30;3.67;;;4.40;99.90;;;;;;5081300;28;20484;-65
2022/01/30 09:18:38;;;;;;;37.50;4.18;;;4.50;99.90;;;;;;5099396;28;20028;-65
2022/01/30 09:21:06;;;;;;;17.10;2.97;;;4.50;99.90;;;;;;5098509;28;20024;-71
2022/01/30 09:23:33;;;;;;;29.30;5.38;;;4.50;99.90;;;;;;5099363;28;20434;-68
2022/01/30 09:26:01;;;;;;;22.13;3.67;;;4.50;99.90;;;;;;5099100;28;20294;-66
2022/01/30 09:28:29;;;;;;;19.55;3.25;;;4.60;99.90;;;;;;5082072;28;20049;-66
2022/01/30 09:30:56;;;;;;;27.55;2.92;;;4.60;99.90;;;;;;5099343;28;20040;-66
2022/01/30 09:33:23;;;;;;;22.75;4.57;;;4.70;99.90;;;;;;5100013;28;20032;-65
2022/01/30 09:35:52;;;;;;;21.38;3.70;;;4.70;99.90;;;;;;5099552;28;20032;-66
2022/01/30 09:38:20;;;;;;;18.20;3.88;;;4.70;99.90;;;;;;5099397;28;20464;-66
2022/01/30 09:40:52;;;;;;;13.60;2.92;;;4.70;99.90;;;;;;5099347;28;20074;-66
2022/01/30 09:43:21;;;;;;;19.63;4.13;;;4.70;99.90;;;;;;5098545;28;20398;-66
2022/01/30 09:45:49;;;;;;;21.85;3.83;;;4.80;99.90;;;;;;5098385;28;20026;-66
2022/01/30 09:48:19;;;;;;;19.60;3.80;;;4.80;99.90;;;;;;5098210;28;20031;-66
2022/01/30 09:50:48;;;;;;;25.88;3.03;;;4.90;99.90;;;;;;5098129;28;20016;-66
2022/01/30 09:53:16;;;;;;;12.45;3.92;;;5.00;99.90;;;;;;5080081;28;20301;-70
2022/01/30 09:55:44;;;;;;;14.57;2.45;;;5.00;99.90;;;;;;5080290;28;20077;-71
2022/01/30 09:58:11;;;;;;;24.73;4.03;;;5.00;99.90;;;;;;5098595;28;20146;-70
2022/01/30 10:00:39;;;;;;;20.30;3.63;;;5.00;99.90;;;;;;5080096;28;20443;-70
2022/01/30 10:03:06;;;;;;;24.65;4.97;;;5.00;99.90;;;;;;5063383;28;20024;-67
2022/01/30 10:05:36;;;;;;;33.22;6.38;;;5.00;99.90;;;;;;5081092;28;20021;-67
2022/01/30 10:08:05;;;;;;;25.45;5.78;;;5.00;99.90;;;;;;5081133;28;20028;-67
2022/01/30 10:10:36;;;;;;;24.50;5.20;;;5.00;99.90;;;;;;5098625;28;20074;-67
2022/01/30 10:13:14;;;;;;;20.92;3.60;;;4.90;99.90;;;;;;5081068;28;20028;-67
2022/01/30 10:16:04;;;;;;;19.02;3.53;;;4.90;99.90;;;;;;5098777;28;20020;-67
2022/01/30 10:18:43;;;;;;;19.33;4.10;;;4.90;99.90;;;;;;5098447;28;20020;-70
2022/01/30 10:21:21;;;;;;;26.38;4.82;;;4.90;99.90;;;;;;5080500;28;20331;-70
2022/01/30 10:23:48;;;;;;;21.85;4.32;;;5.00;99.90;;;;;;5098405;28;20077;-69
2022/01/30 10:26:18;;;;;;;30.38;4.95;;;5.00;99.90;;;;;;5080189;28;20099;-69
2022/01/30 10:28:45;;;;;;;25.77;4.75;;;5.10;99.90;;;;;;5097056;28;20035;-69
2022/01/30 10:31:12;;;;;;;27.77;5.72;;;5.10;99.90;;;;;;5076041;28;20036;-69
2022/01/30 10:33:48;;;;;;;29.52;5.45;;;5.10;99.90;;;;;;5077376;28;20454;-68
2022/01/30 10:36:24;;;;;;;29.65;9.82;;;5.20;99.90;;;;;;5077167;28;20025;-69
2022/01/30 10:39:16;;;;;;;17.35;5.85;;;5.20;99.90;;;;;;5076399;28;20436;-66
2022/01/30 10:41:52;;;;;;;25.05;4.68;;;5.20;99.90;;;;;;5077468;28;20119;-67
2022/01/30 10:44:20;;;;;;;;;;;5.30;99.90;;;;;;5077181;28;20104;-67
2022/01/30 10:46:54;;;;;;;21.70;3.53;;;5.30;99.90;;;;;;5076406;28;20292;-67
2022/01/30 10:49:23;;;;;;;20.17;3.35;;;5.40;99.90;;;;;;5077538;28;20060;-66
2022/01/30 10:51:56;;;;;;;19.52;2.88;;;5.40;99.90;;;;;;5076549;28;20460;-66
2022/01/30 10:54:26;;;;;;;21.33;4.20;;;5.50;99.90;;;;;;5078027;28;20436;-66
2022/01/30 10:57:23;;;;;;;38.65;7.72;;;5.50;99.90;;;;;;5077701;28;20150;-67
2022/01/30 10:59:56;;;;;;;20.35;3.78;;;5.60;99.90;;;;;;5064852;28;20052;-67
2022/01/30 11:02:25;;;;;;;31.17;3.95;;;5.70;99.90;;;;;;5077403;28;20032;-66
2022/01/30 11:05:06;;;;;;;21.85;3.20;;;5.70;99.90;;;;;;5077823;28;20024;-66
2022/01/30 11:07:38;;;;;;;20.83;3.47;;;5.80;99.90;;;;;;5077697;28;20031;-66
2022/01/30 11:10:14;;;;;;;16.85;4.55;;;5.80;99.90;;;;;;5076555;28;20035;-66
2022/01/30 11:12:56;;;;;;;27.60;3.97;;;5.80;99.90;;;;;;5076367;28;20055;-67
2022/01/30 11:18:00;;;;;;;46.38;4.95;;;5.80;99.90;;;;;;5076566;28;20017;-66
2022/01/30 11:20:30;;;;;;;22.60;5.00;;;5.80;99.90;;;;;;5076471;28;20020;-67
2022/01/30 11:23:03;;;;;;;16.20;2.97;;;5.90;99.90;;;;;;5075402;28;20030;-67
2022/01/30 11:25:35;;;;;;;31.42;5.28;;;5.90;99.90;;;;;;5076708;28;20043;-67
2022/01/30 11:28:05;;;;;;;26.75;3.95;;;5.80;99.90;;;;;;5076396;28;20017;-66
2022/01/30 11:30:33;;;;;;;17.17;2.63;;;5.90;99.90;;;;;;5086752;28;20055;-66
2022/01/30 11:33:00;;;;;;;21.83;4.60;;;5.80;99.90;;;;;;5079570;28;20085;-66
2022/01/30 11:35:28;;;;;;;19.55;4.15;;;5.80;99.90;;;;;;5079611;28;20017;-66
2022/01/30 11:37:57;;;;;;;36.00;4.75;;;5.80;99.90;;;;;;5097345;28;20024;-66
2022/01/30 11:40:24;;;;;;;19.67;4.70;;;5.80;99.90;;;;;;5097995;28;20113;-73
2022/01/30 11:42:52;;;;;;;25.90;4.47;;;5.80;99.90;;;;;;5097411;28;20386;-67
2022/01/30 11:45:32;;;;;;;32.90;5.13;;;5.80;99.90;;;;;;5097256;28;20475;-66
2022/01/30 11:48:11;;;;;;;28.70;5.45;;;5.80;99.90;;;;;;5097329;28;20024;-65
2022/01/30 11:50:39;;;;;;;18.73;3.28;;;5.80;99.90;;;;;;5100909;28;20051;-66
2022/01/30 11:53:08;;;;;;;16.92;4.22;;;5.80;99.90;;;;;;5100265;28;20044;-69
2022/01/30 11:56:00;;;;;;;16.13;4.10;;;5.80;99.90;;;;;;5082559;28;20324;-70
2022/01/30 11:58:45;;;;;;;22.17;3.08;;;5.90;99.90;;;;;;5100820;28;20020;-69
2022/01/30 12:01:26;;;;;;;26.00;5.53;;;5.90;99.90;;;;;;5101106;28;20383;-69
2022/01/30 12:03:59;;;;;;;24.17;4.57;;;5.90;99.90;;;;;;5100690;28;20129;-68
2022/01/30 12:06:30;;;;;;;22.92;6.10;;;5.90;99.90;;;;;;5100320;28;20024;-68
2022/01/30 12:09:04;;;;;;;40.42;6.50;;;5.90;99.90;;;;;;5100156;28;20073;-68
2022/01/30 12:11:37;;;;;;;22.95;3.90;;;6.00;99.90;;;;;;5082293;28;20422;-69
2022/01/30 12:14:12;;;;;;;22.58;4.43;;;5.90;99.90;;;;;;5101631;28;20373;-69
2022/01/30 12:17:12;;;;;;;33.65;3.55;;;5.90;99.90;;;;;;5101531;28;20367;-68
2022/01/30 12:19:47;;;;;;;34.78;5.35;;;5.90;99.90;;;;;;5099998;28;20033;-68
2022/01/30 12:22:23;;;;;;;31.77;4.35;;;5.90;99.90;;;;;;5100798;28;20032;-68
2022/01/30 12:25:13;;;;;;;21.52;3.95;;;5.90;99.90;;;;;;5100516;28;20039;-68
2022/01/30 12:27:55;;;;;;;14.80;2.97;;;6.00;99.90;;;;;;5082687;28;20020;-68
2022/01/30 12:30:46;;;;;;;37.20;5.30;;;6.00;99.90;;;;;;5079163;28;20467;-68
2022/01/30 12:33:45;;;;;;;38.47;4.90;;;6.00;99.90;;;;;;5079966;28;20032;-67
2022/01/30 12:36:17;;;;;;;30.40;5.63;;;6.10;99.90;;;;;;5046073;28;20035;-67
2022/01/30 12:38:45;;;;;;;21.05;3.60;;;6.10;99.90;;;;;;5079180;28;20301;-68
2022/01/30 12:41:18;;;;;;;30.40;5.43;;;6.10;99.90;;;;;;5079707;28;20107;-69
2022/01/30 12:43:51;;;;;;;25.50;3.67;;;6.00;99.90;;;;;;5079213;28;20028;-69
2022/01/30 12:46:19;;;;;;;27.35;4.15;;;6.00;99.90;;;;;;5079368;28;20021;-69
2022/01/30 12:49:01;;;;;;;21.90;4.63;;;6.00;99.90;;;;;;5079203;28;20024;-68
2022/01/30 12:51:38;;;;;;;33.15;5.72;;;6.00;99.90;;;;;;5079572;28;20028;-68
2022/01/30 12:54:07;;;;;;;41.38;7.13;;;6.00;99.90;;;;;;5078854;28;20028;-68
2022/01/30 12:56:36;;;;;;;23.75;5.05;;;6.00;99.90;;;;;;5080034;28;20025;-68
2022/01/30 12:59:08;;;;;;;39.88;6.20;;;6.00;99.90;;;;;;5079893;28;20017;-68
2022/01/30 13:01:41;;;;;;;27.33;5.20;;;6.00;99.90;;;;;;5077696;28;20028;-68
2022/01/30 13:04:29;;;;;;;15.98;3.70;;;5.90;99.90;;;;;;5079745;28;20127;-72
2022/01/30 13:06:57;;;;;;;29.35;4.43;;;5.90;99.90;;;;;;5079816;28;20090;-68
2022/01/30 13:09:26;;;;;;;34.35;5.30;;;5.90;99.90;;;;;;5080072;28;20564;-68
2022/01/30 13:11:59;;;;;;;27.60;3.30;;;5.90;99.90;;;;;;5079683;28;20082;-68
2022/01/30 13:14:34;;;;;;;21.33;3.67;;;5.90;99.90;;;;;;5079565;28;20078;-68
2022/01/30 13:17:02;;;;;;;28.17;3.78;;;5.90;99.90;;;;;;5079155;28;20021;-68
2022/01/30 13:19:35;;;;;;;16.90;3.80;;;5.90;99.90;;;;;;5078595;28;20035;-68
2022/01/30 13:22:05;;;;;;;24.52;5.45;;;5.90;99.90;;;;;;5077571;28;20032;-68
2022/01/30 13:24:36;;;;;;;29.05;5.85;;;5.90;99.90;;;;;;5078540;28;20077;-68
2022/01/30 13:27:10;;;;;;;29.63;5.25;;;5.90;99.90;;;;;;5079044;28;20025;-68
2022/01/30 13:29:37;;;;;;;24.35;3.92;;;5.90;99.90;;;;;;5078684;28;20116;-69
2022/01/30 13:32:11;;;;;;;24.77;4.78;;;5.90;99.90;;;;;;5098605;28;20020;-68
2022/01/30 13:34:41;;;;;;;27.20;6.80;;;5.90;99.90;;;;;;5099271;28;20020;-68
2022/01/30 13:37:18;;;;;;;23.35;3.60;;;5.90;99.90;;;;;;5099413;28;20024;-68
2022/01/30 13:48:08;;;;;;;20.88;5.63;;;5.90;99.90;;;;;;5099286;28;20030;-68
2022/01/30 13:50:43;;;;;;;28.50;5.28;;;5.80;99.90;;;;;;5099085;28;20020;-68
2022/01/30 13:53:19;;;;;;;24.08;4.95;;;5.80;99.90;;;;;;5082152;28;20404;-68
2022/01/30 13:56:02;;;;;;;25.40;5.40;;;5.80;99.90;;;;;;5099286;28;20016;-68
2022/01/30 13:58:43;;;;;;;16.05;2.90;;;5.80;99.90;;;;;;5099596;28;20343;-68
2022/01/30 14:01:21;;;;;;;22.90;3.88;;;5.90;99.90;;;;;;5098367;28;20022;-68
2022/01/30 14:04:07;;;;;;;26.38;3.90;;;5.90;99.90;;;;;;5098051;28;20095;-68
2022/01/30 14:06:36;;;;;;;18.70;3.90;;;5.90;99.90;;;;;;5097814;28;20032;-68
2022/01/30 14:09:25;;;;;;;25.20;5.10;;;6.00;99.90;;;;;;5079898;28;20032;-68